createdAt,value
2018-05-07T00:01:53.840Z,2.70
2018-05-07T00:04:22.222Z,2.20
2018-05-07T00:06:50.634Z,2.20
2018-05-07T00:09:19.813Z,1.92
2018-05-07T00:11:48.273Z,2.97
2018-05-07T00:14:16.653Z,2.40
2018-05-07T00:16:45.051Z,2.00
2018-05-07T00:19:13.429Z,2.00
2018-05-07T00:21:41.813Z,2.47
2018-05-07T00:24:10.213Z,2.78
2018-05-07T00:26:38.655Z,2.22
2018-05-07T00:29:07.026Z,2.53
2018-05-07T00:31:35.407Z,2.35
2018-05-07T00:34:03.806Z,1.98
2018-05-07T00:36:32.205Z,2.10
2018-05-07T00:39:00.644Z,2.05
2018-05-07T00:41:29.792Z,2.10
2018-05-07T00:43:58.195Z,2.45
2018-05-07T00:46:26.671Z,2.42
2018-05-07T00:48:55.051Z,2.50
2018-05-07T00:51:23.502Z,2.70
2018-05-07T00:53:51.841Z,2.70
2018-05-07T00:56:20.366Z,2.33
2018-05-07T00:58:48.770Z,2.08
2018-05-07T01:01:17.187Z,1.90
2018-05-07T01:03:45.566Z,2.10
2018-05-07T01:06:13.965Z,2.70
2018-05-07T01:08:43.110Z,2.12
2018-05-07T01:11:11.487Z,2.05
2018-05-07T01:13:39.889Z,1.90
2018-05-07T01:16:08.295Z,2.50
2018-05-07T01:18:36.698Z,2.67
2018-05-07T01:21:05.885Z,2.00
2018-05-07T01:23:34.291Z,2.03
2018-05-07T01:26:03.461Z,2.17
2018-05-07T01:28:31.877Z,2.50
2018-05-07T01:31:01.063Z,2.05
2018-05-07T01:33:29.479Z,2.30
2018-05-07T01:35:57.856Z,2.75
2018-05-07T01:38:26.331Z,2.67
2018-05-07T01:40:55.494Z,2.60
2018-05-07T01:43:23.889Z,2.40
2018-05-07T01:45:52.303Z,2.03
2018-05-07T01:48:20.707Z,2.35
2018-05-07T01:50:49.096Z,2.10
2018-05-07T01:53:17.519Z,2.53
2018-05-07T01:55:45.908Z,2.20
2018-05-07T01:58:14.295Z,2.40
2018-05-07T02:00:42.696Z,2.10
2018-05-07T02:03:11.845Z,2.42
2018-05-07T02:05:40.246Z,2.10
2018-05-07T02:08:08.638Z,2.40
2018-05-07T02:10:37.023Z,2.30
2018-05-07T02:13:05.410Z,2.47
2018-05-07T02:15:33.801Z,2.62
2018-05-07T02:18:02.958Z,2.60
2018-05-07T02:20:31.358Z,2.67
2018-05-07T02:22:59.752Z,3.20
2018-05-07T02:25:28.137Z,2.47
2018-05-07T02:27:57.441Z,2.55
2018-05-07T02:30:25.860Z,2.15
2018-05-07T02:32:55.021Z,2.20
2018-05-07T02:35:23.415Z,2.60
2018-05-07T02:37:51.808Z,2.50
2018-05-07T02:40:20.975Z,2.20
2018-05-07T02:42:49.382Z,2.20
2018-05-07T02:45:17.777Z,2.15
2018-05-07T02:47:46.177Z,2.62
2018-05-07T02:50:15.351Z,2.95
2018-05-07T02:52:43.735Z,2.20
2018-05-07T02:55:12.214Z,2.75
2018-05-07T02:57:40.610Z,2.65
2018-05-07T03:00:09.015Z,2.40
2018-05-07T03:02:38.175Z,3.00
2018-05-07T03:05:06.641Z,3.20
2018-05-07T03:07:35.029Z,2.65
2018-05-07T03:10:03.431Z,2.67
2018-05-07T03:12:32.684Z,2.65
2018-05-07T03:15:01.119Z,2.67
2018-05-07T03:17:29.557Z,2.67
2018-05-07T03:19:58.685Z,2.60
2018-05-07T03:22:27.070Z,3.03
2018-05-07T03:24:55.466Z,2.95
2018-05-07T03:27:23.851Z,2.78
2018-05-07T03:29:52.270Z,3.30
2018-05-07T03:32:21.439Z,3.40
2018-05-07T03:34:49.921Z,2.60
2018-05-07T03:37:18.327Z,2.80
2018-05-07T03:39:46.705Z,2.70
2018-05-07T03:42:15.140Z,3.72
2018-05-07T03:44:43.522Z,2.70
2018-05-07T03:47:11.922Z,3.10
2018-05-07T03:49:40.418Z,2.95
2018-05-07T03:52:08.816Z,3.37
2018-05-07T03:54:37.201Z,3.10
2018-05-07T03:57:05.608Z,2.53
2018-05-07T03:59:33.981Z,3.15
2018-05-07T04:02:03.111Z,3.12
2018-05-07T04:04:31.561Z,3.42
2018-05-07T04:06:59.860Z,3.15
2018-05-07T04:09:28.382Z,2.85
2018-05-07T04:11:56.770Z,3.00
2018-05-07T04:14:25.163Z,3.25
2018-05-07T04:20:25.621Z,3.15
2018-05-07T04:23:11.497Z,2.92
2018-05-07T04:25:39.971Z,3.53
2018-05-07T04:28:08.370Z,3.03
2018-05-07T04:30:36.776Z,3.47
2018-05-07T04:33:05.182Z,2.90
2018-05-07T04:35:33.596Z,2.80
2018-05-07T04:38:01.955Z,3.47
2018-05-07T04:40:30.345Z,2.87
2018-05-07T04:42:58.721Z,3.90
2018-05-07T04:45:27.144Z,2.75
2018-05-07T04:47:55.559Z,3.22
2018-05-07T04:50:23.949Z,3.55
2018-05-07T04:52:53.295Z,2.90
2018-05-07T04:55:21.691Z,2.70
2018-05-07T04:57:50.095Z,2.80
2018-05-07T05:00:18.489Z,2.90
2018-05-07T05:02:47.661Z,3.45
2018-05-07T05:05:16.095Z,3.45
2018-05-07T05:07:44.480Z,3.22
2018-05-07T05:10:12.909Z,3.10
2018-05-07T05:12:41.308Z,2.70
2018-05-07T05:15:10.457Z,3.30
2018-05-07T05:17:38.885Z,2.87
2018-05-07T05:20:08.061Z,2.80
2018-05-07T05:22:36.457Z,3.33
2018-05-07T05:25:04.840Z,2.70
2018-05-07T05:27:33.257Z,2.60
2018-05-07T05:30:01.738Z,2.70
2018-05-07T05:32:30.155Z,3.20
2018-05-07T05:34:58.560Z,2.60
2018-05-07T05:37:26.965Z,3.00
2018-05-07T05:39:55.365Z,3.20
2018-05-07T05:42:24.527Z,2.90
2018-05-07T05:44:52.923Z,2.50
2018-05-07T05:47:21.438Z,2.83
2018-05-07T05:49:50.741Z,3.07
2018-05-07T05:52:19.122Z,2.50
2018-05-07T05:54:48.299Z,3.07
2018-05-07T05:57:17.582Z,3.23
2018-05-07T05:59:46.721Z,2.70
2018-05-07T06:02:15.887Z,2.33
2018-05-07T06:04:49.196Z,2.57
2018-05-07T06:07:17.634Z,2.70
2018-05-07T06:09:46.027Z,2.80
2018-05-07T06:12:14.449Z,3.43
2018-05-07T06:14:43.077Z,2.87
2018-05-07T06:17:12.170Z,3.03
2018-05-07T06:19:41.707Z,2.40
2018-05-07T06:22:10.474Z,2.63
2018-05-07T06:24:38.955Z,2.47
2018-05-07T06:27:08.109Z,2.83
2018-05-07T06:29:38.017Z,2.90
2018-05-07T06:32:09.177Z,2.60
2018-05-07T06:34:37.671Z,3.03
2018-05-07T06:37:06.913Z,3.37
2018-05-07T06:39:36.060Z,2.87
2018-05-07T06:42:04.445Z,2.67
2018-05-07T06:44:32.846Z,2.77
2018-05-07T06:47:01.444Z,3.10
2018-05-07T06:49:30.601Z,2.60
2018-05-07T06:51:59.007Z,2.93
2018-05-07T06:54:27.412Z,2.70
2018-05-07T06:56:56.681Z,2.77
2018-05-07T06:59:25.156Z,2.50
2018-05-07T07:01:53.525Z,2.70
2018-05-07T07:04:21.897Z,2.67
2018-05-07T07:06:50.283Z,2.57
2018-05-07T07:09:18.706Z,2.70
2018-05-07T07:11:48.057Z,1.90
2018-05-07T07:14:17.220Z,2.33
2018-05-07T07:16:45.593Z,2.50
2018-05-07T07:19:13.978Z,2.50
2018-05-07T07:21:44.081Z,3.23
2018-05-07T07:24:12.486Z,2.30
2018-05-07T07:26:41.893Z,2.00
2018-05-07T07:29:10.382Z,2.20
2018-05-07T07:31:38.778Z,2.23
2018-05-07T07:34:08.162Z,2.40
2018-05-07T07:36:36.488Z,2.00
2018-05-07T07:39:06.383Z,2.20
2018-05-07T07:41:34.822Z,2.10
2018-05-07T07:44:03.277Z,2.63
2018-05-07T07:46:32.433Z,2.10
2018-05-07T07:49:00.888Z,2.03
2018-05-07T07:51:29.269Z,2.17
2018-05-07T07:53:57.666Z,2.33
2018-05-07T07:56:26.047Z,2.20
2018-05-07T07:58:54.484Z,2.60
2018-05-07T08:01:22.923Z,1.70
2018-05-07T08:03:51.403Z,2.50
2018-05-07T08:06:19.788Z,1.90
2018-05-07T08:08:48.176Z,2.50
2018-05-07T08:11:16.618Z,2.10
2018-05-07T08:13:45.772Z,1.77
2018-05-07T08:16:14.173Z,2.50
2018-05-07T08:18:42.610Z,2.20
2018-05-07T08:21:11.005Z,2.20
2018-05-07T08:23:39.410Z,2.47
2018-05-07T08:26:07.820Z,2.47
2018-05-07T08:28:36.167Z,2.40
2018-05-07T08:31:04.582Z,2.80
2018-05-07T08:33:32.986Z,2.50
2018-05-07T08:36:02.154Z,1.90
2018-05-07T08:38:30.551Z,2.17
2018-05-07T08:40:59.002Z,2.47
2018-05-07T08:43:27.398Z,2.33
2018-05-07T08:45:56.550Z,1.97
2018-05-07T08:48:25.703Z,2.33
2018-05-07T08:50:54.104Z,2.27
2018-05-07T08:53:22.524Z,2.43
2018-05-07T08:55:50.939Z,2.20
2018-05-07T08:58:19.403Z,2.00
2018-05-07T09:00:47.790Z,2.87
2018-05-07T09:03:16.218Z,2.17
2018-05-07T09:05:44.605Z,2.63
2018-05-07T09:08:13.002Z,2.10
2018-05-07T09:10:42.149Z,2.10
2018-05-07T09:13:10.538Z,2.80
2018-05-07T09:15:39.000Z,2.00
2018-05-07T09:18:07.369Z,4.37
2018-05-07T09:20:36.585Z,2.13
2018-05-07T09:23:04.969Z,2.53
2018-05-07T09:25:35.017Z,2.07
2018-05-07T09:28:03.743Z,2.50
2018-05-07T09:30:32.153Z,1.73
2018-05-07T09:33:00.549Z,2.17
2018-05-07T09:35:28.966Z,1.87
2018-05-07T09:37:57.363Z,1.90
2018-05-07T09:40:25.743Z,2.07
2018-05-07T09:42:54.215Z,1.70
2018-05-07T09:45:23.311Z,2.07
2018-05-07T09:47:51.730Z,2.10
2018-05-07T09:50:20.280Z,2.07
2018-05-07T09:52:48.656Z,2.37
2018-05-07T09:55:17.232Z,2.10
2018-05-07T09:58:04.313Z,1.97
2018-05-07T10:00:37.747Z,2.10
2018-05-07T10:03:06.225Z,2.10
2018-05-07T10:05:34.625Z,2.33
2018-05-07T10:08:03.035Z,2.00
2018-05-07T10:10:32.220Z,2.03
2018-05-07T10:13:00.674Z,2.23
2018-05-07T10:15:29.088Z,1.70
2018-05-07T10:17:57.494Z,2.10
2018-05-07T10:20:25.904Z,2.20
2018-05-07T10:22:55.051Z,2.40
2018-05-07T10:25:23.462Z,2.80
2018-05-07T10:27:51.862Z,2.03
2018-05-07T10:30:21.039Z,1.90
2018-05-07T10:32:49.440Z,2.07
2018-05-07T10:35:18.699Z,1.70
2018-05-07T10:37:47.854Z,2.13
2018-05-07T10:40:17.017Z,1.90
2018-05-07T10:42:45.503Z,1.90
2018-05-07T10:45:13.877Z,1.90
2018-05-07T10:47:43.076Z,2.00
2018-05-07T10:50:11.524Z,2.00
2018-05-07T10:52:39.962Z,2.00
2018-05-07T10:55:10.333Z,1.83
2018-05-07T10:57:38.773Z,2.23
2018-05-07T11:00:07.189Z,1.80
2018-05-07T11:02:36.375Z,1.87
2018-05-07T11:05:04.784Z,2.23
2018-05-07T11:07:34.014Z,2.30
2018-05-07T11:10:03.309Z,2.20
2018-05-07T11:12:31.790Z,2.20
2018-05-07T11:15:00.182Z,1.90
2018-05-07T11:17:28.614Z,2.50
2018-05-07T11:19:57.039Z,1.83
2018-05-07T11:22:25.470Z,2.10
2018-05-07T11:24:53.884Z,2.27
2018-05-07T11:27:23.046Z,1.93
2018-05-07T11:29:51.462Z,2.70
2018-05-07T11:32:20.617Z,1.83
2018-05-07T11:34:49.946Z,2.10
2018-05-07T11:37:18.326Z,2.13
2018-05-07T11:39:46.714Z,2.30
2018-05-07T11:42:16.621Z,1.97
2018-05-07T11:44:45.035Z,2.10
2018-05-07T11:47:13.443Z,1.80
2018-05-07T11:49:41.916Z,2.13
2018-05-07T11:52:11.060Z,2.50
2018-05-07T11:54:39.462Z,2.30
2018-05-07T11:57:07.913Z,1.93
2018-05-07T11:59:36.307Z,2.00
2018-05-07T12:02:04.722Z,1.77
2018-05-07T12:04:33.119Z,1.70
2018-05-07T12:07:01.555Z,2.53
2018-05-07T12:09:29.933Z,2.60
2018-05-07T12:11:58.339Z,2.03
2018-05-07T12:14:26.744Z,1.80
2018-05-07T12:16:55.144Z,2.20
2018-05-07T12:19:23.563Z,2.17
2018-05-07T12:21:51.961Z,2.27
2018-05-07T12:24:20.379Z,1.97
2018-05-07T12:26:48.783Z,2.20
2018-05-07T12:29:17.949Z,1.80
2018-05-07T12:31:46.511Z,1.77
2018-05-07T12:34:15.561Z,2.20
2018-05-07T12:36:43.941Z,2.30
2018-05-07T12:39:12.319Z,1.70
2018-05-07T12:41:40.722Z,2.10
2018-05-07T12:44:10.432Z,2.00
2018-05-07T12:46:39.647Z,1.70
2018-05-07T12:49:08.817Z,2.23
2018-05-07T12:51:37.999Z,1.83
2018-05-07T12:54:06.409Z,1.93
2018-05-07T12:56:34.819Z,2.27
2018-05-07T12:59:04.021Z,2.20
2018-05-07T13:01:32.353Z,2.00
2018-05-07T13:04:00.748Z,2.47
2018-05-07T13:06:29.162Z,1.80
2018-05-07T13:08:57.593Z,1.80
2018-05-07T13:11:26.513Z,2.10
2018-05-07T13:13:54.983Z,2.40
2018-05-07T13:16:23.461Z,1.97
2018-05-07T13:18:51.873Z,2.43
2018-05-07T13:21:20.252Z,2.10
2018-05-07T13:23:48.626Z,1.93
2018-05-07T13:26:17.037Z,2.67
2018-05-07T13:28:45.409Z,2.13
2018-05-07T13:31:13.847Z,1.80
2018-05-07T13:33:42.284Z,2.00
2018-05-07T13:36:11.682Z,2.00
2018-05-07T13:38:40.064Z,2.20
2018-05-07T13:41:08.476Z,2.20
2018-05-07T13:43:37.656Z,2.10
2018-05-07T13:46:06.057Z,1.90
2018-05-07T13:48:37.458Z,1.90
2018-05-07T13:51:12.985Z,1.83
2018-05-07T13:53:42.099Z,1.37
2018-05-07T13:56:11.480Z,1.67
2018-05-07T13:58:45.152Z,2.03
2018-05-07T14:01:14.952Z,2.00
2018-05-07T14:03:43.366Z,2.00
2018-05-07T14:06:12.617Z,1.97
2018-05-07T14:08:41.884Z,1.80
2018-05-07T14:11:11.184Z,2.00
2018-05-07T14:13:39.577Z,2.00
2018-05-07T14:16:07.973Z,2.00
2018-05-07T14:18:36.633Z,2.07
2018-05-07T14:21:05.794Z,2.23
2018-05-07T14:23:37.019Z,1.60
2018-05-07T14:26:05.497Z,1.60
2018-05-07T14:28:33.901Z,2.00
2018-05-07T14:31:02.342Z,2.77
2018-05-07T14:33:33.213Z,1.63
2018-05-07T14:36:01.627Z,1.77
2018-05-07T14:38:30.059Z,1.60
2018-05-07T14:40:58.620Z,1.80
2018-05-07T14:43:27.833Z,1.87
2018-05-07T14:45:56.347Z,1.80
2018-05-07T14:48:25.241Z,1.87
2018-05-07T14:50:53.672Z,1.60
2018-05-07T14:53:22.085Z,1.80
2018-05-07T14:55:51.245Z,1.60
2018-05-07T14:58:19.666Z,1.50
2018-05-07T15:00:48.890Z,1.60
2018-05-07T15:03:17.323Z,1.37
2018-05-07T15:05:45.740Z,1.80
2018-05-07T15:08:14.894Z,1.57
2018-05-07T15:10:44.071Z,1.77
2018-05-07T15:13:12.494Z,1.70
2018-05-07T15:15:41.111Z,1.90
2018-05-07T15:18:09.477Z,2.07
2018-05-07T15:20:37.905Z,2.10
2018-05-07T15:23:06.302Z,1.90
2018-05-07T15:25:34.698Z,1.60
2018-05-07T15:28:03.131Z,1.93
2018-05-07T15:30:32.320Z,1.60
2018-05-07T15:33:01.474Z,2.20
2018-05-07T15:35:30.522Z,1.70
2018-05-07T15:38:00.388Z,1.93
2018-05-07T15:40:28.803Z,1.80
2018-05-07T15:42:57.210Z,1.67
2018-05-07T15:45:26.380Z,1.60
2018-05-07T15:47:54.830Z,1.63
2018-05-07T15:50:23.239Z,1.47
2018-05-07T15:52:51.649Z,2.37
2018-05-07T15:55:20.038Z,3.40
2018-05-07T15:57:49.299Z,2.60
2018-05-07T16:00:17.677Z,2.00
2018-05-07T16:02:46.875Z,1.77
2018-05-07T16:05:15.260Z,1.43
2018-05-07T16:07:43.665Z,1.80
2018-05-07T16:10:12.127Z,1.90
2018-05-07T16:12:40.523Z,1.67
2018-05-07T16:15:09.005Z,1.60
2018-05-07T16:17:37.456Z,1.67
2018-05-07T16:20:05.834Z,2.07
2018-05-07T16:22:34.992Z,1.73
2018-05-07T16:25:03.388Z,2.00
2018-05-07T16:27:31.798Z,2.17
2018-05-07T16:30:07.378Z,1.83
2018-05-07T16:32:35.748Z,2.17
2018-05-07T16:35:04.194Z,2.40
2018-05-07T16:37:33.431Z,2.40
2018-05-07T16:40:02.711Z,1.50
2018-05-07T16:42:31.876Z,1.83
2018-05-07T16:45:00.339Z,1.90
2018-05-07T16:47:28.741Z,1.90
2018-05-07T16:49:57.164Z,1.93
2018-05-07T16:52:26.363Z,2.00
2018-05-07T16:54:55.595Z,1.97
2018-05-07T16:57:23.999Z,2.13
2018-05-07T16:59:52.439Z,1.77
2018-05-07T17:02:21.617Z,1.70
2018-05-07T17:04:51.086Z,2.10
2018-05-07T17:07:19.530Z,2.50
2018-05-07T17:09:48.715Z,2.03
2018-05-07T17:12:17.173Z,1.50
2018-05-07T17:14:45.609Z,1.60
2018-05-07T17:17:14.798Z,1.97
2018-05-07T17:19:43.957Z,2.20
2018-05-07T17:22:12.412Z,2.27
2018-05-07T17:24:40.839Z,2.07
2018-05-07T17:27:09.254Z,2.80
2018-05-07T17:29:38.449Z,2.10
2018-05-07T17:32:07.636Z,2.20
2018-05-07T17:34:36.103Z,1.90
2018-05-07T17:37:05.327Z,2.60
2018-05-07T17:39:33.754Z,2.30
2018-05-07T17:42:02.158Z,2.23
2018-05-07T17:44:48.338Z,2.10
2018-05-07T17:47:34.314Z,2.30
2018-05-07T17:50:02.747Z,2.40
2018-05-07T17:52:31.216Z,2.27
2018-05-07T17:54:59.597Z,2.53
2018-05-07T17:57:28.052Z,2.90
2018-05-07T17:59:56.508Z,2.37
2018-05-07T18:02:24.887Z,2.23
2018-05-07T18:04:54.874Z,2.10
2018-05-07T18:07:24.817Z,2.10
2018-05-07T18:09:53.990Z,2.13
2018-05-07T18:12:22.406Z,2.20
2018-05-07T18:14:51.645Z,2.40
2018-05-07T18:17:20.284Z,2.30
2018-05-07T18:19:49.219Z,2.43
2018-05-07T18:22:17.657Z,2.10
2018-05-07T18:24:47.886Z,2.57
2018-05-07T18:27:22.254Z,2.10
2018-05-07T18:29:51.505Z,2.27
2018-05-07T18:32:26.759Z,2.30
2018-05-07T18:35:09.645Z,2.10
2018-05-07T18:37:38.121Z,2.27
2018-05-07T18:40:06.544Z,2.10
2018-05-07T18:42:35.065Z,2.40
2018-05-07T18:45:03.453Z,2.63
2018-05-07T18:47:31.852Z,3.40
2018-05-07T18:50:00.291Z,3.33
2018-05-07T18:52:29.633Z,3.07
2018-05-07T18:54:58.035Z,2.60
2018-05-07T18:57:26.452Z,2.70
2018-05-07T18:59:54.938Z,2.97
2018-05-07T19:02:23.390Z,2.60
2018-05-07T19:04:51.886Z,2.87
2018-05-07T19:07:20.273Z,2.80
2018-05-07T19:09:48.674Z,3.10
2018-05-07T19:12:17.097Z,2.97
2018-05-07T19:14:45.488Z,3.40
2018-05-07T19:17:13.887Z,3.60
2018-05-07T19:19:42.335Z,3.30
2018-05-07T19:22:10.804Z,3.00
2018-05-07T19:24:40.003Z,2.70
2018-05-07T19:27:09.153Z,2.97
2018-05-07T19:29:37.549Z,3.50
2018-05-07T19:32:05.950Z,3.73
2018-05-07T19:34:34.371Z,3.50
2018-05-07T19:37:03.532Z,3.50
2018-05-07T19:39:31.955Z,3.57
2018-05-07T19:42:01.169Z,3.50
2018-05-07T19:44:29.591Z,3.97
2018-05-07T19:46:57.994Z,3.80
2018-05-07T19:49:26.404Z,3.30
2018-05-07T19:51:55.588Z,3.67
2018-05-07T19:54:24.753Z,3.67
2018-05-07T19:56:53.158Z,3.57
2018-05-07T19:59:21.538Z,3.40
2018-05-07T20:01:49.941Z,3.90
2018-05-07T20:04:18.406Z,4.00
2018-05-07T20:06:46.801Z,4.10
2018-05-07T20:09:15.265Z,4.10
2018-05-07T20:11:43.663Z,3.90
2018-05-07T20:14:12.073Z,3.97
2018-05-07T20:16:42.150Z,3.23
2018-05-07T20:19:10.570Z,3.20
2018-05-07T20:21:39.038Z,3.50
2018-05-07T20:24:07.500Z,3.40
2018-05-07T20:26:35.907Z,3.40
2018-05-07T20:29:04.362Z,3.23
2018-05-07T20:31:32.760Z,3.57
2018-05-07T20:34:01.954Z,3.80
2018-05-07T20:36:31.187Z,3.50
2018-05-07T20:38:59.588Z,2.73
2018-05-07T20:41:29.716Z,3.57
2018-05-07T20:43:58.091Z,3.67
2018-05-07T20:46:27.306Z,3.00
2018-05-07T20:48:55.728Z,3.20
2018-05-07T20:51:24.193Z,3.53
2018-05-07T20:53:52.623Z,2.90
2018-05-07T20:56:21.086Z,3.77
2018-05-07T20:58:49.772Z,2.83
2018-05-07T21:01:18.220Z,3.53
2018-05-07T21:03:46.586Z,3.40
2018-05-07T21:06:15.768Z,3.40
2018-05-07T21:08:44.249Z,2.83
2018-05-07T21:11:12.688Z,3.70
2018-05-07T21:13:42.114Z,3.30
2018-05-07T21:16:10.519Z,3.30
2018-05-07T21:18:38.970Z,3.03
2018-05-07T21:21:07.402Z,3.60
2018-05-07T21:23:35.875Z,3.07
2018-05-07T21:26:04.322Z,2.70
2018-05-07T21:28:32.744Z,3.30
2018-05-07T21:31:01.147Z,3.17
2018-05-07T21:33:29.578Z,3.60
2018-05-07T21:35:58.006Z,3.60
2018-05-07T21:38:26.434Z,3.57
2018-05-07T21:40:54.856Z,2.93
2018-05-07T21:43:23.303Z,3.50
2018-05-07T21:45:51.701Z,3.53
2018-05-07T21:48:20.119Z,3.50
2018-05-07T21:50:49.301Z,3.40
2018-05-07T21:53:17.699Z,3.27
2018-05-07T21:55:46.117Z,3.27
2018-05-07T21:58:15.282Z,3.40
2018-05-07T22:00:43.739Z,3.10
2018-05-07T22:03:12.419Z,3.20
2018-05-07T22:05:40.835Z,2.90
2018-05-07T22:08:09.330Z,3.73
2018-05-07T22:10:37.771Z,2.80
2018-05-07T22:13:06.188Z,4.53
2018-05-07T22:15:34.589Z,3.50
2018-05-07T22:18:02.995Z,4.03
2018-05-07T22:20:32.132Z,4.43
2018-05-07T22:23:00.530Z,4.17
2018-05-07T22:25:28.950Z,3.80
2018-05-07T22:27:58.110Z,4.10
2018-05-07T22:30:26.575Z,3.93
2018-05-07T22:32:55.014Z,3.40
2018-05-07T22:35:23.419Z,3.40
2018-05-07T22:37:52.605Z,3.80
2018-05-07T22:40:21.018Z,3.30
2018-05-07T22:42:49.432Z,3.30
2018-05-07T22:45:17.811Z,3.63
2018-05-07T22:47:46.240Z,3.77
2018-05-07T22:50:14.638Z,3.47
2018-05-07T22:52:48.924Z,3.23
2018-05-07T22:55:21.162Z,3.30
2018-05-07T22:57:49.549Z,3.30
2018-05-07T23:00:17.950Z,3.30
2018-05-07T23:02:49.054Z,3.03
2018-05-07T23:05:17.535Z,4.20
2018-05-07T23:07:45.976Z,3.13
2018-05-07T23:10:14.391Z,3.57
2018-05-07T23:12:43.533Z,4.10
2018-05-07T23:15:11.942Z,3.37
2018-05-07T23:17:40.351Z,3.17
2018-05-07T23:20:09.518Z,2.97
2018-05-07T23:22:37.930Z,2.83
2018-05-07T23:25:07.091Z,3.27
2018-05-07T23:27:35.506Z,3.13
2018-05-07T23:30:03.944Z,2.67
2018-05-07T23:32:32.345Z,2.70
2018-05-07T23:35:01.624Z,2.57
2018-05-07T23:37:30.030Z,2.60
2018-05-07T23:39:59.189Z,3.20
2018-05-07T23:42:28.374Z,2.57
2018-05-07T23:44:57.550Z,2.77
2018-05-07T23:47:25.933Z,3.43
2018-05-07T23:49:54.402Z,2.40
2018-05-07T23:52:22.855Z,3.10
2018-05-07T23:54:51.253Z,2.97
2018-05-07T23:57:19.732Z,3.10
2018-05-07T23:59:48.136Z,3.10
